Chippewa Lake, Michigan
Current Conditions -  °F | °C
As of 10:14 PM on Friday 21 Nov 2014 (Local Time) from KRQB Reporting Station
Clear Clear  
Wind Chill: 17°   Ceiling: Unl
Heat Index: 26°   Visibility: 10mi
Dew Point: 15°   Wind: 8mph
Humidity: 63%   Direction: 200°SSW
Pressure: 30.21"   Gusts: 18mph
Location:  43.74°N, 85.3°W
Report Text: KRQB 220314Z AUTO 20007G16KT 10SM CLR M03/M10 A3021 RMK AO2 T10341096
Loading
Personal Weather Stations






























Interactive Weather Map New forecast layout! Learn more

10-Day Weather Forecast

Advertisements
Track Severe Weather on mobile